SBNT/NAT METAR and TAF weather

Enter ICAO airport designator
Station Type Date Time Source
SBNT METAR 2020/04/02 00:00 UTC NOAA

SBNT 020000Z 16003KT 9999 SCT027 FEW043TCU BKN070 26/25 Q1013


Station Type Date Time Source
SBNT Decoded METAR 2020/04/02 00:00 UTC NOAA

Natal Aeroporto, Brazil (SBNT) 05-55S 035-15W 49M
Apr 01, 2020 - 08:00 PM EDT / 2020.04.02 0000 UTC
Wind: from the SSE (160 degrees) at 3 MPH (3 KT):0
Visibility: greater than 7 mile(s):0
Sky conditions: mostly cloudy
Weather: Towering cumulus clouds observed
Temperature: 78 F (26 C)
Dew Point: 77 F (25 C)
Relative Humidity: 94%
Pressure (altimeter): 29.91 in. Hg (1013 hPa)
ob: SBNT 020000Z 16003KT 9999 SCT027 FEW043TCU BKN070 26/25 Q1013
cycle: 0

Station Type Date Time Source
SBNT TAF 2020/04/02 00:36 UTC NOAA

TAF SBNT 012200Z 0200/0212 19006KT 9999 SCT022 TN25/0205Z TX31/0212Z
BECMG 0208/0210 16009KT PROB40
TEMPO 0210/0212 5000 TSRA BKN020 FEW023CB
RMK PEG

Example: see airport list